sensor_id;sensor_type;location;lat;lon;timestamp;temperature;humidity
19538;DHT22;9914;51.008;4.300;2022-09-01T00:02:10;20.20;99.90
19538;DHT22;9914;51.008;4.300;2022-09-01T00:04:38;20.10;99.90
19538;DHT22;9914;51.008;4.300;2022-09-01T00:07:05;20.00;99.90
19538;DHT22;9914;51.008;4.300;2022-09-01T00:09:31;19.80;99.90
19538;DHT22;9914;51.008;4.300;2022-09-01T00:11:57;19.80;99.90
19538;DHT22;9914;51.008;4.300;2022-09-01T00:14:27;19.90;99.90
19538;DHT22;9914;51.008;4.300;2022-09-01T00:16:53;19.90;99.90
19538;DHT22;9914;51.008;4.300;2022-09-01T00:19:19;20.00;99.90
19538;DHT22;9914;51.008;4.300;2022-09-01T00:21:45;20.00;99.90
19538;DHT22;9914;51.008;4.300;2022-09-01T00:24:14;19.90;99.90
19538;DHT22;9914;51.008;4.300;2022-09-01T00:26:40;20.00;99.90
19538;DHT22;9914;51.008;4.300;2022-09-01T00:29:07;20.00;99.90
19538;DHT22;9914;51.008;4.300;2022-09-01T00:31:33;19.90;99.90
19538;DHT22;9914;51.008;4.300;2022-09-01T00:33:59;19.90;99.90
19538;DHT22;9914;51.008;4.300;2022-09-01T00:36:26;19.70;99.90
19538;DHT22;9914;51.008;4.300;2022-09-01T00:38:52;19.50;99.90
19538;DHT22;9914;51.008;4.300;2022-09-01T00:41:23;19.40;99.90
19538;DHT22;9914;51.008;4.300;2022-09-01T00:43:55;19.30;99.90
19538;DHT22;9914;51.008;4.300;2022-09-01T00:46:30;19.40;99.90
19538;DHT22;9914;51.008;4.300;2022-09-01T00:49:09;19.30;99.90
19538;DHT22;9914;51.008;4.300;2022-09-01T00:51:38;19.30;99.90
19538;DHT22;9914;51.008;4.300;2022-09-01T00:54:08;19.10;99.90
19538;DHT22;9914;51.008;4.300;2022-09-01T00:56:38;19.10;99.90
19538;DHT22;9914;51.008;4.300;2022-09-01T00:59:06;19.10;99.90
19538;DHT22;9914;51.008;4.300;2022-09-01T01:01:33;19.00;99.90
19538;DHT22;9914;51.008;4.300;2022-09-01T01:04:06;19.00;99.90
19538;DHT22;9914;51.008;4.300;2022-09-01T01:06:43;19.00;99.90
19538;DHT22;9914;51.008;4.300;2022-09-01T01:09:15;19.30;99.90
19538;DHT22;9914;51.008;4.300;2022-09-01T01:11:41;19.30;99.90
19538;DHT22;9914;51.008;4.300;2022-09-01T01:14:10;19.30;99.90
19538;DHT22;9914;51.008;4.300;2022-09-01T01:16:41;19.30;99.90
19538;DHT22;9914;51.008;4.300;2022-09-01T01:19:28;19.10;99.90
19538;DHT22;9914;51.008;4.300;2022-09-01T01:25:19;18.80;99.90
19538;DHT22;9914;51.008;4.300;2022-09-01T01:27:47;19.00;99.90
19538;DHT22;9914;51.008;4.300;2022-09-01T01:30:13;19.10;99.90
19538;DHT22;9914;51.008;4.300;2022-09-01T01:32:42;19.00;99.90
19538;DHT22;9914;51.008;4.300;2022-09-01T01:35:14;19.00;99.90
19538;DHT22;9914;51.008;4.300;2022-09-01T01:37:44;18.90;99.90
19538;DHT22;9914;51.008;4.300;2022-09-01T01:40:15;18.80;99.90
19538;DHT22;9914;51.008;4.300;2022-09-01T01:42:43;18.80;99.90
19538;DHT22;9914;51.008;4.300;2022-09-01T01:45:12;18.90;99.90
19538;DHT22;9914;51.008;4.300;2022-09-01T01:47:43;18.80;99.90
19538;DHT22;9914;51.008;4.300;2022-09-01T01:50:16;18.70;99.90
19538;DHT22;9914;51.008;4.300;2022-09-01T01:52:41;18.70;99.90
19538;DHT22;9914;51.008;4.300;2022-09-01T01:55:08;18.70;99.90
19538;DHT22;9914;51.008;4.300;2022-09-01T01:57:38;18.70;99.90
19538;DHT22;9914;51.008;4.300;2022-09-01T02:00:04;18.70;99.90
19538;DHT22;9914;51.008;4.300;2022-09-01T02:02:31;18.70;99.90
19538;DHT22;9914;51.008;4.300;2022-09-01T02:04:58;18.90;99.90
19538;DHT22;9914;51.008;4.300;2022-09-01T02:07:24;18.90;99.90
19538;DHT22;9914;51.008;4.300;2022-09-01T02:09:52;19.10;99.90
19538;DHT22;9914;51.008;4.300;2022-09-01T02:12:17;18.90;99.90
19538;DHT22;9914;51.008;4.300;2022-09-01T02:14:44;19.10;99.90
19538;DHT22;9914;51.008;4.300;2022-09-01T02:17:10;19.10;99.90
19538;DHT22;9914;51.008;4.300;2022-09-01T02:19:35;18.80;99.90
19538;DHT22;9914;51.008;4.300;2022-09-01T02:22:06;18.80;99.90
19538;DHT22;9914;51.008;4.300;2022-09-01T02:24:35;18.90;99.90
19538;DHT22;9914;51.008;4.300;2022-09-01T02:27:01;19.00;99.90
19538;DHT22;9914;51.008;4.300;2022-09-01T02:29:27;18.80;99.90
19538;DHT22;9914;51.008;4.300;2022-09-01T02:31:54;18.70;99.90
19538;DHT22;9914;51.008;4.300;2022-09-01T02:34:21;19.00;99.90
19538;DHT22;9914;51.008;4.300;2022-09-01T02:36:51;18.90;99.90
19538;DHT22;9914;51.008;4.300;2022-09-01T02:39:20;18.90;99.90
19538;DHT22;9914;51.008;4.300;2022-09-01T02:41:48;18.90;99.90
19538;DHT22;9914;51.008;4.300;2022-09-01T02:44:14;18.90;99.90
19538;DHT22;9914;51.008;4.300;2022-09-01T02:46:45;19.10;99.90
19538;DHT22;9914;51.008;4.300;2022-09-01T02:49:14;19.10;99.90
19538;DHT22;9914;51.008;4.300;2022-09-01T02:51:47;19.10;99.90
19538;DHT22;9914;51.008;4.300;2022-09-01T02:54:13;18.80;99.90
19538;DHT22;9914;51.008;4.300;2022-09-01T02:56:42;18.70;99.90
19538;DHT22;9914;51.008;4.300;2022-09-01T02:59:09;18.50;99.90
19538;DHT22;9914;51.008;4.300;2022-09-01T03:01:38;18.70;99.90
19538;DHT22;9914;51.008;4.300;2022-09-01T03:04:06;18.50;99.90
19538;DHT22;9914;51.008;4.300;2022-09-01T03:06:36;18.30;99.90
19538;DHT22;9914;51.008;4.300;2022-09-01T03:09:09;18.20;99.90
19538;DHT22;9914;51.008;4.300;2022-09-01T03:11:39;18.00;99.90
19538;DHT22;9914;51.008;4.300;2022-09-01T03:14:06;17.90;99.90
19538;DHT22;9914;51.008;4.300;2022-09-01T03:16:33;18.00;99.90
19538;DHT22;9914;51.008;4.300;2022-09-01T03:19:00;18.00;99.90
19538;DHT22;9914;51.008;4.300;2022-09-01T03:21:27;18.10;99.90
19538;DHT22;9914;51.008;4.300;2022-09-01T03:23:54;18.00;99.90
19538;DHT22;9914;51.008;4.300;2022-09-01T03:26:22;17.90;99.90
19538;DHT22;9914;51.008;4.300;2022-09-01T03:28:49;18.00;99.90
19538;DHT22;9914;51.008;4.300;2022-09-01T03:31:15;18.10;99.90
19538;DHT22;9914;51.008;4.300;2022-09-01T03:33:43;18.30;99.90
19538;DHT22;9914;51.008;4.300;2022-09-01T03:36:08;18.20;99.90
19538;DHT22;9914;51.008;4.300;2022-09-01T03:38:44;17.90;99.90
19538;DHT22;9914;51.008;4.300;2022-09-01T03:41:14;17.90;99.90
19538;DHT22;9914;51.008;4.300;2022-09-01T03:43:44;17.80;99.90
19538;DHT22;9914;51.008;4.300;2022-09-01T03:46:10;17.80;99.90
19538;DHT22;9914;51.008;4.300;2022-09-01T03:48:37;17.90;99.90
19538;DHT22;9914;51.008;4.300;2022-09-01T03:51:03;18.00;99.90
19538;DHT22;9914;51.008;4.300;2022-09-01T03:53:32;18.00;99.90
19538;DHT22;9914;51.008;4.300;2022-09-01T03:56:01;17.90;99.90
19538;DHT22;9914;51.008;4.300;2022-09-01T03:58:29;17.90;99.90
19538;DHT22;9914;51.008;4.300;2022-09-01T04:00:57;17.90;99.90
19538;DHT22;9914;51.008;4.300;2022-09-01T04:03:29;17.80;99.90
19538;DHT22;9914;51.008;4.300;2022-09-01T04:05:57;17.80;99.90
19538;DHT22;9914;51.008;4.300;2022-09-01T04:08:23;17.80;99.90
19538;DHT22;9914;51.008;4.300;2022-09-01T04:10:54;17.80;99.90
19538;DHT22;9914;51.008;4.300;2022-09-01T04:13:26;17.50;99.90
19538;DHT22;9914;51.008;4.300;2022-09-01T04:15:55;17.40;99.90
19538;DHT22;9914;51.008;4.300;2022-09-01T04:18:21;17.30;99.90
19538;DHT22;9914;51.008;4.300;2022-09-01T04:20:56;17.30;99.90
19538;DHT22;9914;51.008;4.300;2022-09-01T04:23:24;17.30;99.90
19538;DHT22;9914;51.008;4.300;2022-09-01T04:26:14;17.20;99.90
19538;DHT22;9914;51.008;4.300;2022-09-01T04:28:47;17.10;99.90
19538;DHT22;9914;51.008;4.300;2022-09-01T04:31:17;17.20;99.90
19538;DHT22;9914;51.008;4.300;2022-09-01T04:33:45;17.20;99.90
19538;DHT22;9914;51.008;4.300;2022-09-01T04:36:26;17.30;99.90
19538;DHT22;9914;51.008;4.300;2022-09-01T04:38:55;17.00;99.90
19538;DHT22;9914;51.008;4.300;2022-09-01T04:41:31;17.00;99.90
19538;DHT22;9914;51.008;4.300;2022-09-01T04:43:59;17.10;99.90
19538;DHT22;9914;51.008;4.300;2022-09-01T04:46:30;17.00;99.90
19538;DHT22;9914;51.008;4.300;2022-09-01T04:48:57;17.10;99.90
19538;DHT22;9914;51.008;4.300;2022-09-01T04:51:24;16.90;99.90
19538;DHT22;9914;51.008;4.300;2022-09-01T04:53:53;16.80;99.90
19538;DHT22;9914;51.008;4.300;2022-09-01T04:56:20;16.90;99.90
19538;DHT22;9914;51.008;4.300;2022-09-01T04:58:48;17.00;99.90
19538;DHT22;9914;51.008;4.300;2022-09-01T05:01:16;17.00;99.90
19538;DHT22;9914;51.008;4.300;2022-09-01T05:03:42;17.00;99.90
19538;DHT22;9914;51.008;4.300;2022-09-01T05:06:16;17.00;99.90
19538;DHT22;9914;51.008;4.300;2022-09-01T05:08:42;16.90;99.90
19538;DHT22;9914;51.008;4.300;2022-09-01T05:11:11;16.90;99.90
19538;DHT22;9914;51.008;4.300;2022-09-01T05:13:37;16.90;99.90
19538;DHT22;9914;51.008;4.300;2022-09-01T05:16:08;16.80;99.90
19538;DHT22;9914;51.008;4.300;2022-09-01T05:18:47;16.80;99.90
19538;DHT22;9914;51.008;4.300;2022-09-01T05:21:19;16.80;99.90
19538;DHT22;9914;51.008;4.300;2022-09-01T05:23:46;17.00;99.90
19538;DHT22;9914;51.008;4.300;2022-09-01T05:26:22;16.90;99.90
19538;DHT22;9914;51.008;4.300;2022-09-01T05:28:50;16.90;99.90
19538;DHT22;9914;51.008;4.300;2022-09-01T05:31:25;17.10;99.90
19538;DHT22;9914;51.008;4.300;2022-09-01T05:33:52;17.10;99.90
19538;DHT22;9914;51.008;4.300;2022-09-01T05:36:20;17.00;99.90
19538;DHT22;9914;51.008;4.300;2022-09-01T05:38:49;16.90;99.90
19538;DHT22;9914;51.008;4.300;2022-09-01T05:41:17;16.90;99.90
19538;DHT22;9914;51.008;4.300;2022-09-01T05:43:46;16.80;99.90
19538;DHT22;9914;51.008;4.300;2022-09-01T05:46:21;17.00;99.90
19538;DHT22;9914;51.008;4.300;2022-09-01T05:48:49;17.10;99.90
19538;DHT22;9914;51.008;4.300;2022-09-01T05:51:19;17.10;99.90
19538;DHT22;9914;51.008;4.300;2022-09-01T05:53:47;17.10;99.90
19538;DHT22;9914;51.008;4.300;2022-09-01T05:56:18;17.10;99.90
19538;DHT22;9914;51.008;4.300;2022-09-01T05:58:45;17.20;99.90
19538;DHT22;9914;51.008;4.300;2022-09-01T06:01:23;17.30;99.90
19538;DHT22;9914;51.008;4.300;2022-09-01T06:03:53;17.30;99.90
19538;DHT22;9914;51.008;4.300;2022-09-01T06:06:20;17.30;99.90
19538;DHT22;9914;51.008;4.300;2022-09-01T06:08:48;17.20;99.90
19538;DHT22;9914;51.008;4.300;2022-09-01T06:11:15;17.20;99.90
19538;DHT22;9914;51.008;4.300;2022-09-01T06:13:45;17.30;99.90
19538;DHT22;9914;51.008;4.300;2022-09-01T06:16:17;17.30;99.90
19538;DHT22;9914;51.008;4.300;2022-09-01T06:18:44;17.30;99.90
19538;DHT22;9914;51.008;4.300;2022-09-01T06:21:11;17.40;99.90
19538;DHT22;9914;51.008;4.300;2022-09-01T06:23:42;17.50;99.90
19538;DHT22;9914;51.008;4.300;2022-09-01T06:26:28;17.60;99.90
19538;DHT22;9914;51.008;4.300;2022-09-01T06:28:56;17.70;99.90
19538;DHT22;9914;51.008;4.300;2022-09-01T06:31:24;17.70;99.90
19538;DHT22;9914;51.008;4.300;2022-09-01T06:33:52;17.80;99.90
19538;DHT22;9914;51.008;4.300;2022-09-01T06:36:22;17.80;99.90
19538;DHT22;9914;51.008;4.300;2022-09-01T06:38:49;17.80;99.90
19538;DHT22;9914;51.008;4.300;2022-09-01T06:41:16;17.60;99.90
19538;DHT22;9914;51.008;4.300;2022-09-01T06:43:49;17.60;99.90
19538;DHT22;9914;51.008;4.300;2022-09-01T06:46:16;17.80;99.90
19538;DHT22;9914;51.008;4.300;2022-09-01T06:48:45;17.90;99.90
19538;DHT22;9914;51.008;4.300;2022-09-01T06:51:14;18.00;99.90
19538;DHT22;9914;51.008;4.300;2022-09-01T06:53:44;18.10;99.90
19538;DHT22;9914;51.008;4.300;2022-09-01T06:56:10;18.10;99.90
19538;DHT22;9914;51.008;4.300;2022-09-01T06:58:39;18.30;99.90
19538;DHT22;9914;51.008;4.300;2022-09-01T07:01:12;18.40;99.90
19538;DHT22;9914;51.008;4.300;2022-09-01T07:03:45;18.60;99.90
19538;DHT22;9914;51.008;4.300;2022-09-01T07:06:13;18.70;99.90
19538;DHT22;9914;51.008;4.300;2022-09-01T07:08:40;18.60;99.90
19538;DHT22;9914;51.008;4.300;2022-09-01T07:11:16;18.90;99.90
19538;DHT22;9914;51.008;4.300;2022-09-01T07:13:54;18.90;99.90
19538;DHT22;9914;51.008;4.300;2022-09-01T07:16:22;19.20;99.90
19538;DHT22;9914;51.008;4.300;2022-09-01T07:18:54;19.40;99.90
19538;DHT22;9914;51.008;4.300;2022-09-01T07:21:25;19.70;99.90
19538;DHT22;9914;51.008;4.300;2022-09-01T07:23:51;19.80;99.90
19538;DHT22;9914;51.008;4.300;2022-09-01T07:26:18;19.90;99.90
19538;DHT22;9914;51.008;4.300;2022-09-01T07:28:45;19.90;99.90
19538;DHT22;9914;51.008;4.300;2022-09-01T07:31:24;19.90;99.90
19538;DHT22;9914;51.008;4.300;2022-09-01T07:33:52;20.10;99.90
19538;DHT22;9914;51.008;4.300;2022-09-01T07:36:20;20.10;99.90
19538;DHT22;9914;51.008;4.300;2022-09-01T07:38:47;20.20;99.90
19538;DHT22;9914;51.008;4.300;2022-09-01T07:41:22;20.30;99.90
19538;DHT22;9914;51.008;4.300;2022-09-01T07:43:49;20.40;99.90
19538;DHT22;9914;51.008;4.300;2022-09-01T07:46:23;20.40;99.90
19538;DHT22;9914;51.008;4.300;2022-09-01T07:48:55;20.30;99.90
19538;DHT22;9914;51.008;4.300;2022-09-01T07:51:24;20.30;99.90
19538;DHT22;9914;51.008;4.300;2022-09-01T07:53:51;20.30;99.90
19538;DHT22;9914;51.008;4.300;2022-09-01T07:56:19;20.50;99.90
19538;DHT22;9914;51.008;4.300;2022-09-01T07:58:46;20.40;99.90
19538;DHT22;9914;51.008;4.300;2022-09-01T08:01:21;20.60;99.90
19538;DHT22;9914;51.008;4.300;2022-09-01T08:03:50;20.80;99.90
19538;DHT22;9914;51.008;4.300;2022-09-01T08:06:18;21.00;99.90
19538;DHT22;9914;51.008;4.300;2022-09-01T08:08:46;21.10;99.90
19538;DHT22;9914;51.008;4.300;2022-09-01T08:11:26;21.30;99.90
19538;DHT22;9914;51.008;4.300;2022-09-01T08:13:54;21.40;99.90
19538;DHT22;9914;51.008;4.300;2022-09-01T08:16:20;21.40;99.90
19538;DHT22;9914;51.008;4.300;2022-09-01T08:18:47;21.40;99.90
19538;DHT22;9914;51.008;4.300;2022-09-01T08:21:14;21.60;99.90
19538;DHT22;9914;51.008;4.300;2022-09-01T08:23:41;21.70;99.90
19538;DHT22;9914;51.008;4.300;2022-09-01T08:26:10;21.90;99.90
19538;DHT22;9914;51.008;4.300;2022-09-01T08:28:36;22.20;99.90
19538;DHT22;9914;51.008;4.300;2022-09-01T08:31:09;22.20;99.90
19538;DHT22;9914;51.008;4.300;2022-09-01T08:33:39;22.40;99.90
19538;DHT22;9914;51.008;4.300;2022-09-01T08:36:07;22.60;99.90
19538;DHT22;9914;51.008;4.300;2022-09-01T08:38:33;22.70;99.90
19538;DHT22;9914;51.008;4.300;2022-09-01T08:41:00;22.80;99.90
19538;DHT22;9914;51.008;4.300;2022-09-01T08:48:43;23.00;99.90
19538;DHT22;9914;51.008;4.300;2022-09-01T08:51:38;23.10;99.90
19538;DHT22;9914;51.008;4.300;2022-09-01T08:57:10;23.30;99.90
19538;DHT22;9914;51.008;4.300;2022-09-01T08:59:38;23.30;99.90
19538;DHT22;9914;51.008;4.300;2022-09-01T09:02:40;23.60;99.90
19538;DHT22;9914;51.008;4.300;2022-09-01T09:10:57;23.90;99.90
19538;DHT22;9914;51.008;4.300;2022-09-01T09:16:13;24.10;99.90
19538;DHT22;9914;51.008;4.300;2022-09-01T09:18:50;24.00;99.90
19538;DHT22;9914;51.008;4.300;2022-09-01T09:21:43;24.10;99.90
19538;DHT22;9914;51.008;4.300;2022-09-01T09:26:41;24.30;99.90
19538;DHT22;9914;51.008;4.300;2022-09-01T09:29:11;24.60;99.90
19538;DHT22;9914;51.008;4.300;2022-09-01T09:31:40;24.60;99.90
19538;DHT22;9914;51.008;4.300;2022-09-01T09:34:34;24.90;99.90
19538;DHT22;9914;51.008;4.300;2022-09-01T09:40:25;25.30;99.90
19538;DHT22;9914;51.008;4.300;2022-09-01T09:45:32;25.30;99.90
19538;DHT22;9914;51.008;4.300;2022-09-01T09:47:59;25.40;99.90
19538;DHT22;9914;51.008;4.300;2022-09-01T09:50:40;25.40;99.90
19538;DHT22;9914;51.008;4.300;2022-09-01T09:53:25;25.50;99.90
19538;DHT22;9914;51.008;4.300;2022-09-01T09:58:38;25.40;99.90
19538;DHT22;9914;51.008;4.300;2022-09-01T10:01:13;25.30;99.90
19538;DHT22;9914;51.008;4.300;2022-09-01T10:03:59;25.30;99.90
19538;DHT22;9914;51.008;4.300;2022-09-01T10:06:35;25.10;99.90
19538;DHT22;9914;51.008;4.300;2022-09-01T10:11:54;25.40;99.90
19538;DHT22;9914;51.008;4.300;2022-09-01T10:14:29;25.50;99.90
19538;DHT22;9914;51.008;4.300;2022-09-01T10:17:08;25.50;99.90
19538;DHT22;9914;51.008;4.300;2022-09-01T10:19:36;26.00;99.90
19538;DHT22;9914;51.008;4.300;2022-09-01T10:22:07;26.20;99.90
19538;DHT22;9914;51.008;4.300;2022-09-01T10:24:37;26.10;99.90
19538;DHT22;9914;51.008;4.300;2022-09-01T10:27:07;25.90;99.90
19538;DHT22;9914;51.008;4.300;2022-09-01T10:29:41;25.80;99.90
19538;DHT22;9914;51.008;4.300;2022-09-01T10:32:11;25.90;99.90
19538;DHT22;9914;51.008;4.300;2022-09-01T10:34:40;26.10;99.90
19538;DHT22;9914;51.008;4.300;2022-09-01T10:37:07;26.40;99.90
19538;DHT22;9914;51.008;4.300;2022-09-01T10:39:33;26.70;99.90
19538;DHT22;9914;51.008;4.300;2022-09-01T10:42:00;26.90;99.90
19538;DHT22;9914;51.008;4.300;2022-09-01T10:45:16;26.90;99.90
19538;DHT22;9914;51.008;4.300;2022-09-01T10:47:28;26.80;99.90
19538;DHT22;9914;51.008;4.300;2022-09-01T10:50:25;26.80;99.90
19538;DHT22;9914;51.008;4.300;2022-09-01T10:52:57;26.80;99.90
19538;DHT22;9914;51.008;4.300;2022-09-01T10:55:38;26.60;99.90
19538;DHT22;9914;51.008;4.300;2022-09-01T10:58:19;26.80;99.90
19538;DHT22;9914;51.008;4.300;2022-09-01T11:00:49;26.70;99.90
19538;DHT22;9914;51.008;4.300;2022-09-01T11:06:02;26.80;99.90
19538;DHT22;9914;51.008;4.300;2022-09-01T11:11:09;27.00;99.80
19538;DHT22;9914;51.008;4.300;2022-09-01T11:13:52;27.00;99.90
19538;DHT22;9914;51.008;4.300;2022-09-01T11:16:38;26.80;99.90
19538;DHT22;9914;51.008;4.300;2022-09-01T11:19:34;26.80;99.90
19538;DHT22;9914;51.008;4.300;2022-09-01T11:22:41;26.70;99.90
19538;DHT22;9914;51.008;4.300;2022-09-01T11:32:52;27.00;98.90
19538;DHT22;9914;51.008;4.300;2022-09-01T11:35:24;27.00;99.00
19538;DHT22;9914;51.008;4.300;2022-09-01T11:37:55;27.00;98.40
19538;DHT22;9914;51.008;4.300;2022-09-01T11:40:33;27.00;98.40
19538;DHT22;9914;51.008;4.300;2022-09-01T11:43:10;27.20;98.30
19538;DHT22;9914;51.008;4.300;2022-09-01T11:48:23;27.50;97.80
19538;DHT22;9914;51.008;4.300;2022-09-01T11:50:57;27.40;97.60
19538;DHT22;9914;51.008;4.300;2022-09-01T11:53:25;27.20;97.50
19538;DHT22;9914;51.008;4.300;2022-09-01T11:55:52;26.90;97.70
19538;DHT22;9914;51.008;4.300;2022-09-01T12:03:40;27.10;97.80
19538;DHT22;9914;51.008;4.300;2022-09-01T12:06:09;27.50;97.30
19538;DHT22;9914;51.008;4.300;2022-09-01T12:08:41;27.70;96.60
19538;DHT22;9914;51.008;4.300;2022-09-01T12:11:34;27.60;96.60
19538;DHT22;9914;51.008;4.300;2022-09-01T12:14:09;27.90;96.60
19538;DHT22;9914;51.008;4.300;2022-09-01T12:16:37;27.70;96.30
19538;DHT22;9914;51.008;4.300;2022-09-01T12:19:05;27.80;96.20
19538;DHT22;9914;51.008;4.300;2022-09-01T12:21:40;27.80;96.00
19538;DHT22;9914;51.008;4.300;2022-09-01T12:24:16;27.70;96.40
19538;DHT22;9914;51.008;4.300;2022-09-01T12:26:43;27.60;96.40
19538;DHT22;9914;51.008;4.300;2022-09-01T12:29:10;27.70;96.70
19538;DHT22;9914;51.008;4.300;2022-09-01T12:31:41;27.70;96.30
19538;DHT22;9914;51.008;4.300;2022-09-01T12:34:36;27.90;96.40
19538;DHT22;9914;51.008;4.300;2022-09-01T12:39:48;28.00;96.10
19538;DHT22;9914;51.008;4.300;2022-09-01T12:42:33;28.00;96.10
19538;DHT22;9914;51.008;4.300;2022-09-01T12:45:04;28.00;96.30
19538;DHT22;9914;51.008;4.300;2022-09-01T12:55:31;27.70;96.40
19538;DHT22;9914;51.008;4.300;2022-09-01T12:58:00;27.40;96.40
19538;DHT22;9914;51.008;4.300;2022-09-01T13:00:33;27.30;96.60
19538;DHT22;9914;51.008;4.300;2022-09-01T13:05:28;28.10;96.30
19538;DHT22;9914;51.008;4.300;2022-09-01T13:07:56;28.50;95.60
19538;DHT22;9914;51.008;4.300;2022-09-01T13:10:25;28.60;95.60
19538;DHT22;9914;51.008;4.300;2022-09-01T13:12:53;28.70;95.00
19538;DHT22;9914;51.008;4.300;2022-09-01T13:15:20;28.90;95.10
19538;DHT22;9914;51.008;4.300;2022-09-01T13:17:46;28.50;95.20
19538;DHT22;9914;51.008;4.300;2022-09-01T13:20:12;28.00;95.80
19538;DHT22;9914;51.008;4.300;2022-09-01T13:22:38;28.00;96.10
19538;DHT22;9914;51.008;4.300;2022-09-01T13:25:06;28.30;95.70
19538;DHT22;9914;51.008;4.300;2022-09-01T13:27:34;28.00;95.80
19538;DHT22;9914;51.008;4.300;2022-09-01T13:29:59;27.90;95.70
19538;DHT22;9914;51.008;4.300;2022-09-01T13:32:25;27.90;95.70
19538;DHT22;9914;51.008;4.300;2022-09-01T13:34:52;27.70;95.70
19538;DHT22;9914;51.008;4.300;2022-09-01T13:37:19;27.30;96.30
19538;DHT22;9914;51.008;4.300;2022-09-01T13:39:45;27.20;96.40
19538;DHT22;9914;51.008;4.300;2022-09-01T13:42:11;27.30;96.40
19538;DHT22;9914;51.008;4.300;2022-09-01T13:44:38;27.40;96.20
19538;DHT22;9914;51.008;4.300;2022-09-01T13:47:04;27.80;95.90
19538;DHT22;9914;51.008;4.300;2022-09-01T13:49:31;28.10;95.70
19538;DHT22;9914;51.008;4.300;2022-09-01T13:51:56;27.80;95.60
19538;DHT22;9914;51.008;4.300;2022-09-01T13:54:22;27.90;95.30
19538;DHT22;9914;51.008;4.300;2022-09-01T13:56:48;28.10;95.00
19538;DHT22;9914;51.008;4.300;2022-09-01T13:59:13;28.10;95.00
19538;DHT22;9914;51.008;4.300;2022-09-01T14:01:39;27.80;94.70
19538;DHT22;9914;51.008;4.300;2022-09-01T14:04:07;27.50;95.00
19538;DHT22;9914;51.008;4.300;2022-09-01T14:06:39;27.40;95.40
19538;DHT22;9914;51.008;4.300;2022-09-01T14:09:05;27.80;95.20
19538;DHT22;9914;51.008;4.300;2022-09-01T14:11:31;28.20;94.90
19538;DHT22;9914;51.008;4.300;2022-09-01T14:13:57;28.50;94.70
19538;DHT22;9914;51.008;4.300;2022-09-01T14:16:23;28.70;94.20
19538;DHT22;9914;51.008;4.300;2022-09-01T14:18:49;28.90;94.00
19538;DHT22;9914;51.008;4.300;2022-09-01T14:21:15;28.90;93.50
19538;DHT22;9914;51.008;4.300;2022-09-01T14:23:44;29.10;93.00
19538;DHT22;9914;51.008;4.300;2022-09-01T14:26:12;29.10;93.00
19538;DHT22;9914;51.008;4.300;2022-09-01T14:28:40;28.90;93.40
19538;DHT22;9914;51.008;4.300;2022-09-01T14:31:11;28.50;93.80
19538;DHT22;9914;51.008;4.300;2022-09-01T14:33:38;28.40;94.00
19538;DHT22;9914;51.008;4.300;2022-09-01T14:36:05;28.00;94.40
19538;DHT22;9914;51.008;4.300;2022-09-01T14:38:31;27.70;94.50
19538;DHT22;9914;51.008;4.300;2022-09-01T14:41:04;27.70;94.50
19538;DHT22;9914;51.008;4.300;2022-09-01T14:43:29;27.50;94.20
19538;DHT22;9914;51.008;4.300;2022-09-01T14:46:05;27.40;94.20
19538;DHT22;9914;51.008;4.300;2022-09-01T14:48:32;27.50;93.80
19538;DHT22;9914;51.008;4.300;2022-09-01T14:50:58;27.40;93.50
19538;DHT22;9914;51.008;4.300;2022-09-01T14:53:26;27.50;93.40
19538;DHT22;9914;51.008;4.300;2022-09-01T14:55:56;27.50;93.60
19538;DHT22;9914;51.008;4.300;2022-09-01T14:58:23;27.60;93.80
19538;DHT22;9914;51.008;4.300;2022-09-01T15:00:52;27.50;93.70
19538;DHT22;9914;51.008;4.300;2022-09-01T15:03:21;27.80;93.20
19538;DHT22;9914;51.008;4.300;2022-09-01T15:05:48;27.90;93.00
19538;DHT22;9914;51.008;4.300;2022-09-01T15:08:15;27.90;93.00
19538;DHT22;9914;51.008;4.300;2022-09-01T15:10:41;27.90;92.80
19538;DHT22;9914;51.008;4.300;2022-09-01T15:13:07;27.80;93.10
19538;DHT22;9914;51.008;4.300;2022-09-01T15:15:34;27.40;93.00
19538;DHT22;9914;51.008;4.300;2022-09-01T15:18:00;27.70;93.00
19538;DHT22;9914;51.008;4.300;2022-09-01T15:20:27;28.00;92.60
19538;DHT22;9914;51.008;4.300;2022-09-01T15:23:18;28.10;91.90
19538;DHT22;9914;51.008;4.300;2022-09-01T15:25:49;28.30;92.20
19538;DHT22;9914;51.008;4.300;2022-09-01T15:28:16;29.10;91.50
19538;DHT22;9914;51.008;4.300;2022-09-01T15:30:48;30.40;90.50
19538;DHT22;9914;51.008;4.300;2022-09-01T15:33:14;32.60;88.10
19538;DHT22;9914;51.008;4.300;2022-09-01T15:35:40;33.60;83.80
19538;DHT22;9914;51.008;4.300;2022-09-01T15:38:30;34.10;83.00
19538;DHT22;9914;51.008;4.300;2022-09-01T15:40:57;34.20;81.40
19538;DHT22;9914;51.008;4.300;2022-09-01T15:43:27;34.30;81.10
19538;DHT22;9914;51.008;4.300;2022-09-01T15:45:56;33.60;80.40
19538;DHT22;9914;51.008;4.300;2022-09-01T15:48:25;33.50;81.20
19538;DHT22;9914;51.008;4.300;2022-09-01T15:51:28;33.40;80.30
19538;DHT22;9914;51.008;4.300;2022-09-01T15:53:58;33.10;80.80
19538;DHT22;9914;51.008;4.300;2022-09-01T15:56:25;32.00;81.20
19538;DHT22;9914;51.008;4.300;2022-09-01T15:58:54;31.40;82.30
19538;DHT22;9914;51.008;4.300;2022-09-01T16:01:20;31.70;82.30
19538;DHT22;9914;51.008;4.300;2022-09-01T16:03:48;31.40;82.10
19538;DHT22;9914;51.008;4.300;2022-09-01T16:06:17;32.00;82.00
19538;DHT22;9914;51.008;4.300;2022-09-01T16:08:43;32.60;80.90
19538;DHT22;9914;51.008;4.300;2022-09-01T16:11:09;31.20;82.20
19538;DHT22;9914;51.008;4.300;2022-09-01T16:13:40;31.50;82.80
19538;DHT22;9914;51.008;4.300;2022-09-01T16:16:24;31.40;82.30
19538;DHT22;9914;51.008;4.300;2022-09-01T16:21:48;32.60;81.30
19538;DHT22;9914;51.008;4.300;2022-09-01T16:24:17;33.40;79.10
19538;DHT22;9914;51.008;4.300;2022-09-01T16:26:46;33.50;78.10
19538;DHT22;9914;51.008;4.300;2022-09-01T16:29:20;33.00;79.20
19538;DHT22;9914;51.008;4.300;2022-09-01T16:31:54;32.50;79.50
19538;DHT22;9914;51.008;4.300;2022-09-01T16:34:22;32.30;80.00
19538;DHT22;9914;51.008;4.300;2022-09-01T16:37:05;33.00;79.80
19538;DHT22;9914;51.008;4.300;2022-09-01T16:39:43;33.40;78.40
19538;DHT22;9914;51.008;4.300;2022-09-01T16:42:37;32.80;78.40
19538;DHT22;9914;51.008;4.300;2022-09-01T16:45:14;32.20;79.10
19538;DHT22;9914;51.008;4.300;2022-09-01T16:53:15;32.00;78.60
19538;DHT22;9914;51.008;4.300;2022-09-01T16:58:20;32.00;79.20
19538;DHT22;9914;51.008;4.300;2022-09-01T17:01:21;31.70;78.30
19538;DHT22;9914;51.008;4.300;2022-09-01T17:03:52;31.70;79.00
19538;DHT22;9914;51.008;4.300;2022-09-01T17:06:35;31.40;79.60
19538;DHT22;9914;51.008;4.300;2022-09-01T17:09:20;31.40;79.90
19538;DHT22;9914;51.008;4.300;2022-09-01T17:12:11;30.40;81.00
19538;DHT22;9914;51.008;4.300;2022-09-01T17:14:58;29.70;83.10
19538;DHT22;9914;51.008;4.300;2022-09-01T17:18:18;29.20;84.00
19538;DHT22;9914;51.008;4.300;2022-09-01T17:20:48;28.80;84.80
19538;DHT22;9914;51.008;4.300;2022-09-01T17:23:26;28.30;85.60
19538;DHT22;9914;51.008;4.300;2022-09-01T17:26:00;28.20;86.10
19538;DHT22;9914;51.008;4.300;2022-09-01T17:28:36;27.90;86.90